Flight Track Log - Related Links

Times and Time Zones

All times are in EDT time to prevent confusion due to time zone crossing. See the RMT7 flight status page for this flight to view local times or setup timezone preferences in your user account.

Time Position Orientation Groundspeed Altitude Reporting Facility
EDT Latitude Longitude Course Direction KTS MPH feet Rate Location/Type
Wed 02:57:15 PM 31.6184 -97.3035 159° South  Level FlightAware Approximate
Wed 02:58:10 PM 31.5975 -97.2939 294° West 137 158 3,800  Level Fort Worth Center
Wed 02:59:10 PM 31.6119 -97.3328 289° West 137 158 4,800 950 Climbing Fort Worth Center
Wed 03:00:10 PM 31.6244 -97.3767 292° West 137 158 5,700 843 Climbing Fort Worth Center
Wed 03:01:11 PM 31.6392 -97.4206 279° West 142 163 6,500 850 Climbing Fort Worth Center
Wed 03:02:10 PM 31.6456 -97.4694 276° West 148 170 7,400 857 Climbing Fort Worth Center
Wed 03:03:10 PM 31.6494 -97.5158 273° West 148 170 8,200 700 Climbing Fort Worth Center
Wed 03:04:10 PM 31.6517 -97.5597 270° West 148 170 8,800 750 Climbing Fort Worth Center
Wed 03:05:10 PM 31.6517 -97.6086 270° West 148 170 9,700 850 Climbing Fort Worth Center
Wed 03:06:10 PM 31.6514 -97.6622 270° West 153 176 10,500 800 Climbing Fort Worth Center
Wed 03:07:10 PM 31.6514 -97.7086 270° West 158 182 11,300 800 Climbing Fort Worth Center
Wed 03:08:10 PM 31.6511 -97.7575 270° West 158 182 12,100 800 Climbing Fort Worth Center
Wed 03:09:10 PM 31.6511 -97.8064 267° West 153 176 12,900 700 Climbing Fort Worth Center
Wed 03:10:10 PM 31.6489 -97.8575 270° West 153 176 13,500 350 Climbing Fort Worth Center
Wed 03:11:10 PM 31.6486 -97.9161 272° West 166 191 13,600 400 Climbing Fort Worth Center
Wed 03:12:10 PM 31.6506 -97.9722 264° West 173 199 14,300 850 Climbing Fort Worth Center
Wed 03:13:10 PM 31.6461 -98.0211 270° West 166 191 15,300 800 Climbing Fort Worth Center
Wed 03:14:10 PM 31.6458 -98.0697 272° West 150 173 15,900 750 Climbing Fort Worth Center
Wed 03:15:10 PM 31.6475 -98.1186 254° West 155 178 16,800 700 Climbing Fort Worth Center
Wed 03:16:10 PM 31.6369 -98.1625 164° South 153 176 17,300 100 Climbing Fort Worth Center
Wed 03:17:10 PM 31.5847 -98.1450 169° South 125 144 17,000 -200 Descending Fort Worth Center
Wed 03:18:10 PM 31.5286 -98.1322 175° South 172 198 16,900 100 Descending Fort Worth Center
Wed 03:19:10 PM 31.4742 -98.1269 173° South 197 227 17,200 100 Climbing Fort Worth Center
Wed 03:20:10 PM 31.4200 -98.1194 179° South 197 227 17,100 -50 Descending Fort Worth Center
Wed 03:21:10 PM 31.3658 -98.1189 180° South 197 227 17,100  Level Fort Worth Center
Wed 03:22:10 PM 31.3178 -98.1186 189° South 197 227 17,100 50 Level Fort Worth Center
Wed 03:23:10 PM 31.2656 -98.1278 97° East 197 227 17,200  Climbing Fort Worth Center
Wed 03:25:11 PM 31.2575 -98.0550 360° North 138 159 17,100 -33 Descending Fort Worth Center
Wed 03:26:10 PM 31.3161 -98.0553 North 205 236 17,100 -101 Level Fort Worth Center
Wed 03:27:10 PM 31.3725 -98.0533 21° North 205 236 16,900 -600 Descending Fort Worth Center
Wed 03:28:10 PM 31.4372 -98.0244 27° Northeast 210 242 15,900 -1,100 Descending Fort Worth Center
Wed 03:29:10 PM 31.4981 -97.9883 63° Northeast 232 267 14,700 -1,300 Descending Fort Worth Center
Wed 03:30:10 PM 31.5297 -97.9153 80° East 232 267 13,300 -850 Descending Fort Worth Center
Wed 03:31:10 PM 31.5403 -97.8422 81° East 222 255 13,000 -149 Descending Fort Worth Center
Wed 03:32:11 PM 31.5489 -97.7767 84° East 217 250 13,000 -450 Level Fort Worth Center
Wed 03:33:10 PM 31.5553 -97.7058 94° East 217 250 12,100 -1,059 Descending Fort Worth Center
Wed 03:34:10 PM 31.5514 -97.6328 73° East 222 255 10,900 -1,200 Descending Fort Worth Center
Wed 03:35:10 PM 31.5681 -97.5669 82° East 222 255 9,700 -1,250 Descending Fort Worth Center
Wed 03:36:10 PM 31.5764 -97.4964 84° East 222 255 8,400 -1,350 Descending Fort Worth Center
Wed 03:37:10 PM 31.5828 -97.4256 75° East 217 250 7,000 -1,200 Descending Fort Worth Center
Wed 03:38:10 PM 31.5975 -97.3622 81° East 211 243 6,000 -1,091 Descending Fort Worth Center
Wed 03:39:11 PM 31.6058 -97.2986 38° Northeast 202 232 4,800 -1,300 Descending Fort Worth Center
Wed 03:40:10 PM 31.6453 -97.2619 356° North 170 196 3,400 -958 Descending Fort Worth Center
Wed 03:41:10 PM 31.6997 -97.2669 96° East 149 171 2,900 -550 Descending Fort Worth Center
Wed 03:42:10 PM 31.6956 -97.2231 162° South 112 129 2,300 -650 Descending Fort Worth Center
Wed 03:43:10 PM 31.6642 -97.2108 180° South 87 100 1,600 -550 Descending Fort Worth Center
Wed 03:44:10 PM 31.6411 -97.2108 180° South 82 94 1,200 -400 Descending Fort Worth Center

Login

Don't have an account? Register now (free) for customized features, flight alerts, and more!